createdAt,value
2024-05-09T00:01:14.654Z,8.55
2024-05-09T00:03:44.597Z,7.97
2024-05-09T00:06:19.081Z,8.13
2024-05-09T00:08:46.380Z,7.43
2024-05-09T00:11:25.406Z,6.95
2024-05-09T00:13:51.999Z,7.07
2024-05-09T00:16:18.839Z,7.90
2024-05-09T00:18:45.576Z,8.30
2024-05-09T00:21:13.825Z,7.57
2024-05-09T00:23:40.542Z,8.25
2024-05-09T00:26:07.496Z,8.02
2024-05-09T00:28:37.059Z,8.48
2024-05-09T00:31:03.693Z,7.63
2024-05-09T00:33:33.411Z,7.77
2024-05-09T00:36:00.018Z,7.55
2024-05-09T00:38:26.619Z,7.03
2024-05-09T00:41:02.183Z,6.63
2024-05-09T00:43:28.732Z,9.38
2024-05-09T00:45:59.356Z,9.67
2024-05-09T00:48:27.082Z,9.32
2024-05-09T00:50:56.348Z,11.60
2024-05-09T00:53:29.675Z,8.70
2024-05-09T00:55:57.853Z,8.30
2024-05-09T00:58:32.473Z,7.37
2024-05-09T01:01:08.259Z,8.20
2024-05-09T01:03:35.092Z,9.23
2024-05-09T01:06:09.087Z,8.52
2024-05-09T01:08:39.109Z,9.48
2024-05-09T01:11:07.787Z,8.73
2024-05-09T01:13:34.355Z,8.57
2024-05-09T01:16:01.127Z,8.32
2024-05-09T01:18:27.825Z,7.90
2024-05-09T01:23:39.269Z,11.67
2024-05-09T01:26:08.965Z,9.85
2024-05-09T01:31:18.736Z,8.73
2024-05-09T01:33:51.508Z,8.02
2024-05-09T01:36:18.454Z,9.80
2024-05-09T01:38:48.971Z,8.95
2024-05-09T01:41:15.577Z,9.15
2024-05-09T01:43:42.553Z,9.25
2024-05-09T01:46:19.480Z,8.75
2024-05-09T01:48:49.664Z,7.03
2024-05-09T01:51:19.350Z,8.45
2024-05-09T01:53:46.017Z,9.07
2024-05-09T01:56:26.059Z,8.40
2024-05-09T01:58:57.051Z,9.65
2024-05-09T02:01:26.689Z,8.37
2024-05-09T02:03:53.415Z,11.32
2024-05-09T02:06:20.298Z,7.82
2024-05-09T02:08:52.656Z,10.75
2024-05-09T02:11:19.596Z,9.05
2024-05-09T02:13:47.103Z,7.40
2024-05-09T02:16:14.596Z,8.93
2024-05-09T02:18:41.954Z,9.02
2024-05-09T02:21:18.527Z,7.43
2024-05-09T02:23:46.386Z,10.55
2024-05-09T02:26:13.675Z,10.20
2024-05-09T02:28:40.342Z,8.20
2024-05-09T02:31:06.848Z,8.57
2024-05-09T02:33:41.745Z,9.02
2024-05-09T02:36:09.213Z,9.68
2024-05-09T02:38:46.049Z,7.00
2024-05-09T02:41:12.572Z,9.05
2024-05-09T02:43:42.996Z,8.95
2024-05-09T02:46:09.608Z,7.55
2024-05-09T02:48:36.314Z,7.50
2024-05-09T02:51:06.427Z,10.80
2024-05-09T02:53:36.046Z,7.80
2024-05-09T02:56:08.013Z,8.48
2024-05-09T02:58:37.690Z,7.97
2024-05-09T03:01:04.437Z,7.13
2024-05-09T03:03:34.272Z,7.57
2024-05-09T03:06:02.050Z,7.32
2024-05-09T03:08:28.981Z,8.80
2024-05-09T03:10:58.900Z,9.23
2024-05-09T03:13:29.082Z,10.30
2024-05-09T03:15:59.777Z,14.00
2024-05-09T03:18:29.592Z,10.20
2024-05-09T03:20:58.766Z,10.75
2024-05-09T03:23:25.366Z,8.45
2024-05-09T03:25:54.226Z,7.75
2024-05-09T03:31:08.654Z,7.15
2024-05-09T03:33:35.992Z,6.55
2024-05-09T03:36:05.581Z,7.13
2024-05-09T03:38:42.602Z,6.65
2024-05-09T03:41:14.975Z,8.40
2024-05-09T03:43:43.765Z,9.07
2024-05-09T03:46:10.307Z,6.85
2024-05-09T03:48:42.055Z,7.38
2024-05-09T03:51:08.776Z,7.30
2024-05-09T03:53:39.054Z,6.37
2024-05-09T03:56:09.076Z,6.40
2024-05-09T03:58:35.892Z,8.35
2024-05-09T04:01:05.620Z,8.30
2024-05-09T04:03:34.083Z,7.68
2024-05-09T04:06:03.877Z,6.27
2024-05-09T04:08:33.507Z,7.70
2024-05-09T04:11:00.077Z,8.68
2024-05-09T04:13:26.926Z,7.13
2024-05-09T04:15:53.439Z,9.15
2024-05-09T04:18:20.077Z,6.90
2024-05-09T04:20:46.703Z,6.68
2024-05-09T04:23:14.682Z,7.78
2024-05-09T04:25:45.678Z,7.03
2024-05-09T04:28:12.985Z,6.70
2024-05-09T04:30:45.791Z,7.93
2024-05-09T04:33:15.081Z,7.20
2024-05-09T04:35:48.275Z,8.07
2024-05-09T04:38:15.781Z,9.20
2024-05-09T04:40:43.275Z,7.45
2024-05-09T04:43:18.593Z,9.33
2024-05-09T04:45:55.826Z,7.03
2024-05-09T04:48:22.867Z,7.28
2024-05-09T04:50:50.016Z,10.50
2024-05-09T04:53:19.746Z,7.00
2024-05-09T04:55:46.394Z,6.53
2024-05-09T04:58:15.959Z,7.43
2024-05-09T05:00:45.660Z,6.93
2024-05-09T05:03:19.063Z,7.18
2024-05-09T05:05:46.366Z,9.05
2024-05-09T05:08:19.871Z,7.27
2024-05-09T05:10:50.500Z,7.32
2024-05-09T05:13:22.835Z,7.78
2024-05-09T05:15:58.360Z,8.40
2024-05-09T05:18:28.611Z,11.00
2024-05-09T05:20:58.390Z,8.00
2024-05-09T05:23:26.118Z,8.40
2024-05-09T05:25:56.836Z,8.57
2024-05-09T05:28:23.673Z,8.68
2024-05-09T05:30:59.783Z,8.50
2024-05-09T05:33:26.510Z,8.23
2024-05-09T05:36:02.590Z,7.72
2024-05-09T05:38:32.614Z,9.35
2024-05-09T05:40:59.538Z,9.52
2024-05-09T05:43:26.468Z,9.52
2024-05-09T05:45:53.010Z,10.07
2024-05-09T05:48:23.109Z,10.43
2024-05-09T05:50:49.883Z,10.23
2024-05-09T05:53:16.609Z,10.65
2024-05-09T05:55:47.103Z,12.27
2024-05-09T05:58:14.775Z,11.27
2024-05-09T06:00:42.396Z,12.23
2024-05-09T06:03:11.550Z,11.98
2024-05-09T06:05:43.679Z,11.93
2024-05-09T06:08:14.257Z,11.95
2024-05-09T06:10:41.842Z,12.03
2024-05-09T06:13:12.792Z,11.95
2024-05-09T06:15:44.062Z,12.80
2024-05-09T06:18:12.218Z,12.60
2024-05-09T06:20:41.863Z,12.52
2024-05-09T06:23:11.801Z,12.40
2024-05-09T06:25:39.183Z,13.65
2024-05-09T06:28:08.973Z,14.15
2024-05-09T06:30:42.654Z,12.40
2024-05-09T06:33:15.834Z,12.70
2024-05-09T06:35:44.929Z,12.43
2024-05-09T06:38:14.801Z,12.13
2024-05-09T06:40:43.685Z,13.10
2024-05-09T06:43:19.482Z,12.30
2024-05-09T06:45:52.856Z,13.23
2024-05-09T06:48:22.078Z,12.33
2024-05-09T06:50:50.855Z,12.35
2024-05-09T06:53:24.551Z,12.32
2024-05-09T06:55:51.703Z,12.05
2024-05-09T06:58:18.287Z,11.80
2024-05-09T07:00:50.980Z,11.20
2024-05-09T07:06:04.217Z,12.02
2024-05-09T07:08:33.824Z,11.98
2024-05-09T07:11:01.488Z,12.90
2024-05-09T07:13:34.478Z,11.43
2024-05-09T07:16:00.984Z,11.32
2024-05-09T07:18:28.060Z,11.32
2024-05-09T07:20:58.195Z,11.15
2024-05-09T07:23:24.918Z,11.63
2024-05-09T07:25:55.318Z,11.87
2024-05-09T07:28:21.900Z,10.93
2024-05-09T07:30:48.638Z,11.30
2024-05-09T07:33:20.897Z,10.50
2024-05-09T07:35:49.634Z,9.95
2024-05-09T07:38:16.557Z,10.00
2024-05-09T07:40:43.288Z,10.40
2024-05-09T07:43:13.896Z,10.82
2024-05-09T07:45:52.395Z,10.32
2024-05-09T07:50:00.307Z,10.45
2024-05-09T07:53:49.913Z,10.48
2024-05-09T07:56:23.043Z,10.02
2024-05-09T07:58:52.991Z,8.80
2024-05-09T08:01:20.057Z,9.05
2024-05-09T08:03:49.789Z,7.67
2024-05-09T08:06:16.635Z,9.05
2024-05-09T08:08:46.855Z,8.95
2024-05-09T08:11:25.586Z,7.95
2024-05-09T08:13:52.271Z,9.63
2024-05-09T08:16:22.084Z,8.53
2024-05-09T08:18:48.828Z,7.80
2024-05-09T08:21:15.423Z,8.57
2024-05-09T08:23:41.976Z,9.70
2024-05-09T08:26:08.465Z,7.60
2024-05-09T08:28:38.585Z,7.40
2024-05-09T08:31:07.969Z,7.03
2024-05-09T08:33:44.136Z,9.00
2024-05-09T08:36:13.840Z,9.30
2024-05-09T08:38:44.082Z,8.60
2024-05-09T08:41:15.419Z,8.67
2024-05-09T08:43:44.342Z,7.28
2024-05-09T08:46:16.592Z,9.25
2024-05-09T08:48:48.057Z,9.18
2024-05-09T08:54:00.429Z,6.90
2024-05-09T08:56:34.424Z,8.35
2024-05-09T08:59:02.097Z,7.60
2024-05-09T09:01:33.757Z,7.90
2024-05-09T09:04:07.163Z,6.70
2024-05-09T09:06:37.276Z,6.53
2024-05-09T09:12:10.173Z,7.53
2024-05-09T09:14:40.325Z,7.93
2024-05-09T09:17:19.383Z,8.52
2024-05-09T09:19:45.987Z,7.23
2024-05-09T09:22:21.786Z,8.35
2024-05-09T09:24:48.776Z,8.57
2024-05-09T09:27:24.430Z,7.40
2024-05-09T09:29:50.991Z,8.00
2024-05-09T09:32:28.644Z,9.00
2024-05-09T09:34:56.589Z,7.80
2024-05-09T09:37:32.266Z,7.28
2024-05-09T09:39:59.335Z,7.28
2024-05-09T09:42:35.368Z,7.97
2024-05-09T09:45:10.476Z,8.33
2024-05-09T09:47:39.956Z,8.63
2024-05-09T09:50:14.558Z,8.15
2024-05-09T09:52:44.577Z,8.63
2024-05-09T09:55:19.851Z,8.15
2024-05-09T09:57:49.069Z,8.23
2024-05-09T10:00:24.076Z,7.93
2024-05-09T10:02:54.509Z,7.38
2024-05-09T10:05:27.053Z,7.65
2024-05-09T10:07:55.467Z,7.03
2024-05-09T10:10:33.266Z,7.80
2024-05-09T10:13:11.054Z,7.53
2024-05-09T10:15:56.806Z,7.32
2024-05-09T10:18:30.174Z,6.90
2024-05-09T10:20:59.440Z,6.68
2024-05-09T10:23:31.022Z,5.70
2024-05-09T10:26:08.531Z,7.25
2024-05-09T10:28:43.404Z,6.85
2024-05-09T10:31:11.937Z,6.63
2024-05-09T10:33:55.114Z,5.93
2024-05-09T10:36:22.596Z,5.23
2024-05-09T10:38:50.835Z,8.73
2024-05-09T10:41:25.920Z,5.07
2024-05-09T10:43:52.477Z,5.43
2024-05-09T10:46:22.226Z,5.07
2024-05-09T10:48:49.239Z,5.50
2024-05-09T10:51:24.508Z,4.38
2024-05-09T10:53:52.489Z,5.35
2024-05-09T10:56:19.288Z,5.22
2024-05-09T10:58:57.409Z,5.57
2024-05-09T11:04:12.243Z,4.68
2024-05-09T11:06:39.666Z,7.13
2024-05-09T11:09:06.854Z,6.32
2024-05-09T11:11:33.982Z,6.05
2024-05-09T11:14:14.293Z,6.63
2024-05-09T11:16:43.601Z,7.00
2024-05-09T11:19:17.747Z,5.25
2024-05-09T11:21:51.729Z,5.85
2024-05-09T11:24:21.749Z,6.95
2024-05-09T11:26:49.368Z,6.27
2024-05-09T11:29:19.256Z,5.50
2024-05-09T11:31:49.685Z,5.80
2024-05-09T11:34:16.410Z,5.50
2024-05-09T11:36:44.403Z,5.95
2024-05-09T11:39:14.006Z,6.90
2024-05-09T11:41:40.537Z,7.28
2024-05-09T11:44:13.081Z,7.10
2024-05-09T11:46:39.958Z,7.60
2024-05-09T11:49:14.139Z,6.50
2024-05-09T11:51:43.907Z,7.63
2024-05-09T11:54:18.293Z,6.70
2024-05-09T11:56:44.912Z,8.48
2024-05-09T11:59:11.592Z,7.47
2024-05-09T12:01:47.409Z,7.43
2024-05-09T12:04:14.237Z,7.73
2024-05-09T12:06:49.965Z,8.85
2024-05-09T12:09:16.755Z,8.45
2024-05-09T12:11:44.440Z,9.10
2024-05-09T12:14:14.027Z,7.85
2024-05-09T12:16:41.244Z,7.97
2024-05-09T12:19:10.894Z,7.30
2024-05-09T12:21:37.546Z,7.25
2024-05-09T12:24:04.179Z,7.55
2024-05-09T12:26:33.902Z,8.35
2024-05-09T12:29:02.416Z,8.63
2024-05-09T12:31:29.253Z,7.72
2024-05-09T12:34:02.547Z,8.88
2024-05-09T12:36:30.669Z,8.25
2024-05-09T12:39:11.122Z,8.30
2024-05-09T12:42:02.380Z,8.67
2024-05-09T12:44:28.880Z,8.80
2024-05-09T12:46:55.484Z,8.98
2024-05-09T12:49:30.428Z,8.38
2024-05-09T12:51:57.120Z,8.38
2024-05-09T12:54:23.662Z,8.17
2024-05-09T12:56:54.282Z,8.27
2024-05-09T12:59:20.805Z,9.18
2024-05-09T13:01:53.355Z,9.95
2024-05-09T13:04:20.071Z,10.02
2024-05-09T13:06:49.481Z,8.80
2024-05-09T13:09:22.652Z,8.55
2024-05-09T13:11:49.297Z,9.60
2024-05-09T13:14:25.444Z,8.88
2024-05-09T13:16:51.964Z,8.88
2024-05-09T13:19:19.196Z,8.27
2024-05-09T13:21:49.330Z,8.20
2024-05-09T13:24:16.167Z,8.38
2024-05-09T13:26:51.982Z,8.50
2024-05-09T13:29:26.717Z,8.45
2024-05-09T13:31:56.505Z,9.40
2024-05-09T13:34:26.348Z,9.10
2024-05-09T13:36:57.009Z,10.05
2024-05-09T13:39:23.658Z,8.45
2024-05-09T13:41:50.213Z,8.95
2024-05-09T13:44:19.814Z,9.93
2024-05-09T13:46:46.648Z,9.57
2024-05-09T13:49:17.442Z,9.00
2024-05-09T13:51:44.209Z,9.02
2024-05-09T13:54:10.775Z,9.35
2024-05-09T13:56:37.750Z,8.90
2024-05-09T13:59:07.216Z,8.45
2024-05-09T14:01:33.807Z,8.32
2024-05-09T14:04:05.160Z,9.15
2024-05-09T14:06:31.987Z,9.35
2024-05-09T14:08:58.651Z,9.80
2024-05-09T14:11:28.283Z,8.65
2024-05-09T14:13:57.674Z,7.75
2024-05-09T14:16:27.462Z,7.60
2024-05-09T14:18:54.347Z,8.07
2024-05-09T14:21:24.669Z,8.33
2024-05-09T14:24:00.000Z,8.45
2024-05-09T14:26:26.986Z,9.05
2024-05-09T14:28:57.114Z,9.23
2024-05-09T14:31:26.991Z,9.18
2024-05-09T14:34:15.000Z,8.17
2024-05-09T14:36:42.118Z,8.80
2024-05-09T14:39:11.795Z,10.48
2024-05-09T14:41:41.385Z,9.13
2024-05-09T14:44:10.198Z,9.10
2024-05-09T14:46:36.727Z,8.70
2024-05-09T14:49:04.503Z,8.40
2024-05-09T14:51:31.716Z,9.55
2024-05-09T14:54:01.911Z,9.15
2024-05-09T14:56:41.725Z,8.98
2024-05-09T14:59:13.960Z,9.50
2024-05-09T15:01:43.615Z,9.18
2024-05-09T15:04:15.252Z,9.52
2024-05-09T15:06:45.209Z,11.65
2024-05-09T15:09:14.181Z,10.07
2024-05-09T15:11:47.507Z,9.30
2024-05-09T15:14:14.347Z,11.00
2024-05-09T15:16:42.724Z,10.88
2024-05-09T15:19:12.523Z,10.63
2024-05-09T15:21:46.742Z,11.88
2024-05-09T15:24:13.250Z,12.07
2024-05-09T15:26:39.773Z,12.68
2024-05-09T15:29:09.844Z,13.50
2024-05-09T15:31:36.381Z,12.40
2024-05-09T15:34:03.011Z,16.58
2024-05-09T15:36:33.161Z,15.10
2024-05-09T15:39:02.934Z,12.80
2024-05-09T15:41:32.728Z,13.32
2024-05-09T15:44:01.471Z,11.80
2024-05-09T15:46:28.141Z,13.00
2024-05-09T15:49:04.399Z,14.77
2024-05-09T15:51:31.075Z,15.40
2024-05-09T15:53:57.938Z,15.45
2024-05-09T15:56:24.526Z,15.80
2024-05-09T15:58:51.085Z,15.32
2024-05-09T16:01:17.715Z,15.20
2024-05-09T16:03:47.294Z,14.27
2024-05-09T16:06:17.260Z,15.35
2024-05-09T16:08:49.630Z,13.02
2024-05-09T16:11:20.771Z,14.65
2024-05-09T16:13:50.029Z,14.20
2024-05-09T16:16:26.026Z,14.88
2024-05-09T16:19:02.041Z,17.30
2024-05-09T16:21:31.575Z,17.40
2024-05-09T16:23:59.139Z,16.88
2024-05-09T16:26:26.574Z,18.33
2024-05-09T16:28:53.171Z,18.10
2024-05-09T16:31:22.570Z,19.25
2024-05-09T16:33:49.227Z,16.40
2024-05-09T16:36:16.258Z,15.70
2024-05-09T16:38:45.692Z,18.13
2024-05-09T16:41:15.502Z,17.48
2024-05-09T16:43:44.874Z,16.70
2024-05-09T16:46:13.876Z,16.20
2024-05-09T16:48:45.125Z,16.05
2024-05-09T16:51:18.072Z,15.70
2024-05-09T16:53:45.833Z,17.92
2024-05-09T16:56:15.544Z,17.95
2024-05-09T16:58:42.458Z,17.50
2024-05-09T17:01:12.602Z,17.45
2024-05-09T17:03:43.341Z,16.93
2024-05-09T17:06:10.612Z,17.52
2024-05-09T17:08:47.224Z,16.38
2024-05-09T17:11:18.680Z,16.92
2024-05-09T17:13:50.422Z,17.63
2024-05-09T17:16:20.999Z,19.43
2024-05-09T17:18:51.004Z,17.38
2024-05-09T17:21:17.806Z,16.65
2024-05-09T17:23:49.265Z,17.10
2024-05-09T17:26:15.802Z,17.92
2024-05-09T17:28:42.491Z,16.57
2024-05-09T17:31:12.359Z,17.42
2024-05-09T17:33:42.869Z,19.67
2024-05-09T17:36:12.231Z,17.90
2024-05-09T17:38:40.986Z,15.75
2024-05-09T17:41:07.607Z,17.97
2024-05-09T17:43:34.583Z,16.63
2024-05-09T17:46:01.376Z,15.82
2024-05-09T17:48:28.089Z,16.27
2024-05-09T17:50:54.684Z,16.17
2024-05-09T17:53:30.333Z,16.60
2024-05-09T17:55:56.929Z,17.08
2024-05-09T17:58:32.157Z,16.45
2024-05-09T18:00:58.878Z,18.65
2024-05-09T18:03:27.266Z,21.73
2024-05-09T18:05:58.648Z,17.83
2024-05-09T18:08:27.217Z,18.75
2024-05-09T18:10:58.909Z,20.65
2024-05-09T18:13:27.246Z,16.98
2024-05-09T18:15:57.024Z,19.35
2024-05-09T18:18:23.717Z,16.03
2024-05-09T18:20:50.564Z,17.40
2024-05-09T18:23:20.436Z,15.25
2024-05-09T18:26:01.653Z,16.23
2024-05-09T18:28:31.095Z,16.75
2024-05-09T18:31:00.357Z,15.10
2024-05-09T18:33:27.045Z,20.02
2024-05-09T18:35:53.701Z,15.93
2024-05-09T18:38:27.921Z,19.02
2024-05-09T18:40:57.537Z,16.65
2024-05-09T18:43:31.176Z,16.70
2024-05-09T18:46:03.254Z,17.05
2024-05-09T18:48:32.693Z,17.23
2024-05-09T18:51:02.016Z,16.38
2024-05-09T18:53:28.629Z,16.67
2024-05-09T18:55:58.422Z,16.97
2024-05-09T18:58:25.043Z,17.38
2024-05-09T19:00:54.283Z,18.83
2024-05-09T19:03:22.551Z,16.15
2024-05-09T19:05:49.714Z,19.20
2024-05-09T19:08:16.536Z,19.33
2024-05-09T19:10:46.568Z,18.15
2024-05-09T19:13:14.352Z,18.88
2024-05-09T19:15:43.759Z,18.38
2024-05-09T19:18:20.656Z,19.52
2024-05-09T19:20:55.631Z,20.53
2024-05-09T19:23:22.307Z,20.23
2024-05-09T19:25:55.571Z,17.73
2024-05-09T19:28:25.961Z,17.17
2024-05-09T19:31:00.908Z,17.27
2024-05-09T19:33:27.585Z,19.00
2024-05-09T19:36:00.181Z,19.38
2024-05-09T19:38:26.714Z,17.83
2024-05-09T19:40:53.427Z,19.73
2024-05-09T19:43:23.571Z,17.83
2024-05-09T19:45:50.332Z,19.63
2024-05-09T19:48:17.133Z,17.67
2024-05-09T19:50:53.682Z,21.30
2024-05-09T19:53:20.382Z,21.30
2024-05-09T19:55:48.103Z,21.10
2024-05-09T19:58:17.786Z,23.30
2024-05-09T20:00:45.071Z,22.55
2024-05-09T20:03:14.324Z,24.67
2024-05-09T20:05:46.643Z,21.00
2024-05-09T20:08:17.541Z,24.88
2024-05-09T20:10:48.068Z,23.97
2024-05-09T20:13:20.271Z,25.98
2024-05-09T20:15:50.775Z,21.63
2024-05-09T20:18:19.668Z,21.13
2024-05-09T20:20:53.403Z,26.90
2024-05-09T20:23:21.152Z,23.37
2024-05-09T20:25:50.669Z,25.98
2024-05-09T20:28:17.321Z,23.60
2024-05-09T20:30:47.539Z,27.88
2024-05-09T20:33:17.037Z,27.23
2024-05-09T20:35:43.561Z,25.50
2024-05-09T20:38:11.270Z,30.15
2024-05-09T20:40:41.120Z,34.83
2024-05-09T20:43:12.158Z,28.27
2024-05-09T20:45:42.238Z,26.50
2024-05-09T20:48:09.818Z,28.50
2024-05-09T20:50:41.979Z,27.77
2024-05-09T20:53:15.666Z,25.77
2024-05-09T20:55:48.222Z,28.75
2024-05-09T20:58:17.350Z,30.15
2024-05-09T21:00:45.743Z,31.07
2024-05-09T21:03:17.650Z,30.05
2024-05-09T21:05:48.602Z,29.52
2024-05-09T21:08:19.725Z,34.72
2024-05-09T21:10:50.411Z,30.58
2024-05-09T21:13:17.334Z,34.50
2024-05-09T21:15:44.287Z,33.35
2024-05-09T21:18:20.295Z,31.15
2024-05-09T21:20:55.964Z,30.98
2024-05-09T21:23:22.688Z,36.83
2024-05-09T21:25:49.209Z,34.17
2024-05-09T21:28:19.407Z,32.25
2024-05-09T21:30:46.116Z,32.70
2024-05-09T21:33:14.297Z,35.05
2024-05-09T21:35:46.952Z,35.35
2024-05-09T21:38:14.607Z,34.00
2024-05-09T21:40:49.597Z,30.92
2024-05-09T21:43:17.878Z,34.85
2024-05-09T21:45:57.546Z,32.70
2024-05-09T21:48:25.544Z,34.70
2024-05-09T21:50:55.389Z,34.23
2024-05-09T21:53:21.930Z,36.70
2024-05-09T21:55:51.709Z,36.25
2024-05-09T21:58:21.645Z,39.25
2024-05-09T22:00:49.152Z,38.20
2024-05-09T22:03:26.546Z,37.50
2024-05-09T22:05:53.484Z,35.83
2024-05-09T22:08:20.001Z,38.05
2024-05-09T22:10:46.608Z,36.25
2024-05-09T22:13:13.542Z,37.78
2024-05-09T22:15:44.092Z,33.60
2024-05-09T22:18:11.746Z,39.00
2024-05-09T22:20:45.176Z,39.25
2024-05-09T22:23:15.931Z,37.05
2024-05-09T22:25:42.867Z,35.25
2024-05-09T22:28:17.188Z,36.83
2024-05-09T22:30:46.092Z,38.45
2024-05-09T22:33:22.310Z,40.72
2024-05-09T22:35:49.418Z,37.55
2024-05-09T22:38:15.968Z,39.38
2024-05-09T22:40:48.002Z,38.70
2024-05-09T22:43:24.827Z,36.17
2024-05-09T22:45:53.750Z,37.63
2024-05-09T22:48:21.561Z,40.88
2024-05-09T22:50:48.566Z,40.03
2024-05-09T22:53:15.547Z,39.97
2024-05-09T22:55:45.275Z,40.22
2024-05-09T22:58:11.985Z,40.15
2024-05-09T23:00:38.623Z,40.70
2024-05-09T23:03:16.571Z,41.55
2024-05-09T23:05:43.312Z,41.73
2024-05-09T23:08:10.612Z,43.20
2024-05-09T23:10:40.053Z,41.47
2024-05-09T23:13:07.972Z,42.67
2024-05-09T23:15:39.486Z,40.50
2024-05-09T23:18:07.269Z,40.20
2024-05-09T23:20:38.688Z,41.90
2024-05-09T23:23:10.022Z,39.40
2024-05-09T23:25:37.903Z,42.47
2024-05-09T23:28:07.841Z,43.75
2024-05-09T23:30:38.458Z,43.90
2024-05-09T23:33:14.894Z,39.53
2024-05-09T23:35:51.629Z,41.40
2024-05-09T23:38:20.897Z,40.08
2024-05-09T23:40:49.248Z,40.03
2024-05-09T23:43:15.839Z,41.90
2024-05-09T23:45:43.395Z,41.95
2024-05-09T23:48:13.241Z,43.47
2024-05-09T23:50:40.807Z,42.88
2024-05-09T23:53:10.178Z,41.42
2024-05-09T23:55:37.747Z,40.57
2024-05-09T23:58:08.339Z,40.55
